Time;durP1;ratioP1;P1;durP2;ratioP2;P2;SDS_P1;SDS_P2;PMS_P1;PMS_P2;Temp;Humidity;BMP_temperature;BMP_pressure;BME280_temperature;BME280_humidity;BME280_pressure;Samples;Min_cycle;Max_cycle;Signal;HPM_P1;HPM_P2
2023/10/26 00:00:25;;;;;;;11.80;8.77;;;16.80;98.50;;;;;;5043347;28;20456;-67
2023/10/26 00:02:52;;;;;;;9.85;8.35;;;16.80;98.40;;;;;;5037673;28;20064;-67
2023/10/26 00:05:18;;;;;;;11.90;9.23;;;;;;;;;;5054113;28;20045;-67
2023/10/26 00:07:44;;;;;;;10.88;9.52;;;;;;;;;;5057581;28;20060;-74
2023/10/26 00:10:10;;;;;;;11.63;9.48;;;;;;;;;;5038874;28;20053;-67
2023/10/26 00:12:36;;;;;;;12.75;9.70;;;16.70;98.40;;;;;;5038817;28;20037;-73
2023/10/26 00:15:02;;;;;;;11.70;9.10;;;;;;;;;;5038563;28;20123;-68
2023/10/26 00:17:40;;;;;;;11.40;8.95;;;16.70;98.40;;;;;;5024118;28;20132;-68
2023/10/26 00:20:07;;;;;;;11.40;9.38;;;16.80;98.40;;;;;;5027322;28;20429;-67
2023/10/26 00:22:32;;;;;;;11.20;9.27;;;16.70;98.40;;;;;;5023728;28;20088;-67
2023/10/26 00:24:59;;;;;;;11.35;9.15;;;16.80;98.40;;;;;;5053606;28;20045;-67
2023/10/26 00:27:26;;;;;;;11.75;9.52;;;;;;;;;;5049622;28;20064;-67
2023/10/26 00:29:51;;;;;;;12.00;8.65;;;16.80;98.50;;;;;;5058728;28;20410;-66
2023/10/26 00:32:17;;;;;;;10.68;8.77;;;16.90;98.50;;;;;;5055671;28;20052;-67
2023/10/26 00:34:43;;;;;;;10.48;8.27;;;16.90;98.40;;;;;;5049412;28;20448;-66
2023/10/26 00:37:09;;;;;;;10.38;8.82;;;;;;;;;;5055418;28;20052;-66
2023/10/26 00:39:35;;;;;;;8.93;7.88;;;16.90;98.40;;;;;;5038035;28;20076;-67
2023/10/26 00:42:01;;;;;;;11.00;8.52;;;;;;;;;;5034180;28;20057;-67
2023/10/26 00:44:27;;;;;;;9.50;7.75;;;16.90;98.40;;;;;;5048040;28;20068;-67
2023/10/26 00:46:54;;;;;;;10.38;8.35;;;16.70;98.40;;;;;;5053994;28;20455;-67
2023/10/26 00:49:20;;;;;;;9.23;7.28;;;16.90;98.50;;;;;;5053990;28;20364;-67
2023/10/26 00:51:57;;;;;;;10.38;7.97;;;16.80;98.50;;;;;;5052734;28;20071;-66
2023/10/26 00:54:23;;;;;;;10.18;7.80;;;16.90;98.50;;;;;;5042710;28;20449;-67
2023/10/26 00:56:49;;;;;;;10.90;8.27;;;16.90;98.50;;;;;;5025709;28;20046;-67
2023/10/26 00:59:15;;;;;;;11.52;8.23;;;16.70;98.40;;;;;;5036359;28;20042;-67
2023/10/26 01:01:41;;;;;;;10.52;8.27;;;17.00;98.50;;;;;;5053802;28;20040;-69
2023/10/26 01:04:07;;;;;;;8.70;7.50;;;;;;;;;;5047363;28;20048;-71
2023/10/26 01:06:33;;;;;;;10.50;7.68;;;17.00;98.50;;;;;;5033837;28;20399;-67
2023/10/26 01:08:59;;;;;;;10.32;7.45;;;16.90;98.50;;;;;;5042425;28;20029;-67
2023/10/26 01:11:25;;;;;;;10.45;7.90;;;16.90;98.50;;;;;;5045257;28;20112;-67
2023/10/26 01:13:50;;;;;;;9.90;7.78;;;17.00;98.50;;;;;;5034743;28;20494;-67
2023/10/26 01:16:16;;;;;;;10.82;7.57;;;16.80;98.50;;;;;;5034671;28;20067;-67
2023/10/26 01:18:42;;;;;;;9.35;7.95;;;16.80;98.50;;;;;;5050372;28;20055;-67
2023/10/26 01:21:09;;;;;;;9.15;7.80;;;16.90;98.30;;;;;;5039182;28;20048;-67
2023/10/26 01:23:35;;;;;;;9.43;7.97;;;;;;;;;;5043615;28;20110;-67
2023/10/26 01:26:02;;;;;;;8.90;7.72;;;16.90;98.50;;;;;;5054301;28;20057;-67
2023/10/26 01:28:28;;;;;;;8.70;7.05;;;;;;;;;;5036413;28;20092;-67
2023/10/26 01:30:54;;;;;;;9.55;7.80;;;;;;;;;;5034754;28;20040;-67
2023/10/26 01:33:20;;;;;;;8.10;6.75;;;16.80;98.50;;;;;;5052596;28;20080;-67
2023/10/26 01:35:47;;;;;;;9.05;7.43;;;;;;;;;;5053360;28;20083;-67
2023/10/26 01:38:13;;;;;;;10.05;7.68;;;;;;;;;;5053797;28;20055;-67
2023/10/26 01:40:39;;;;;;;8.65;7.35;;;;;;;;;;5048529;28;20052;-67
2023/10/26 01:43:05;;;;;;;9.07;7.70;;;;;;;;;;5033758;28;20100;-67
2023/10/26 01:45:31;;;;;;;9.48;7.38;;;17.00;98.60;;;;;;5033951;28;20045;-67
2023/10/26 01:48:02;;;;;;;8.90;7.43;;;16.90;98.60;;;;;;5033541;28;20554;-67
2023/10/26 01:50:27;;;;;;;11.77;7.65;;;16.80;98.50;;;;;;5032751;28;20061;-67
2023/10/26 01:52:53;;;;;;;9.95;7.68;;;;;;;;;;5020477;28;20515;-67
2023/10/26 01:55:20;;;;;;;9.85;7.95;;;;;;;;;;5047909;28;20141;-67
2023/10/26 01:57:45;;;;;;;10.77;7.97;;;16.90;98.60;;;;;;5051304;28;20053;-68
2023/10/26 02:00:11;;;;;;;9.23;7.90;;;16.90;98.60;;;;;;5038417;28;20072;-71
2023/10/26 02:02:37;;;;;;;9.30;7.68;;;17.00;98.50;;;;;;5038170;28;20041;-67
2023/10/26 02:05:03;;;;;;;9.00;7.90;;;16.90;98.50;;;;;;5035788;28;20049;-67
2023/10/26 02:07:29;;;;;;;9.05;7.50;;;16.90;98.50;;;;;;5044510;28;20084;-68
2023/10/26 02:09:56;;;;;;;9.95;7.63;;;;;;;;;;5038661;28;20211;-71
2023/10/26 02:12:22;;;;;;;9.70;7.70;;;;;;;;;;5033722;28;20139;-68
2023/10/26 02:14:48;;;;;;;10.50;8.50;;;17.20;97.50;;;;;;5036006;28;20494;-68
2023/10/26 02:17:14;;;;;;;9.30;8.23;;;16.80;98.40;;;;;;5051140;28;20052;-67
2023/10/26 02:19:41;;;;;;;10.48;7.97;;;16.90;98.40;;;;;;5045121;28;20049;-67
2023/10/26 02:22:06;;;;;;;11.80;7.80;;;16.90;98.30;;;;;;5043299;28;20060;-67
2023/10/26 02:24:32;;;;;;;9.05;7.88;;;17.00;98.40;;;;;;5045580;28;20411;-67
2023/10/26 02:26:58;;;;;;;10.52;8.00;;;16.80;98.40;;;;;;5051014;28;20053;-67
2023/10/26 02:29:24;;;;;;;9.63;7.90;;;;;;;;;;5046977;28;20051;-68
2023/10/26 02:31:50;;;;;;;9.85;8.07;;;16.80;98.40;;;;;;5050587;28;20080;-67
2023/10/26 02:34:16;;;;;;;9.30;7.75;;;;;;;;;;5051951;28;20095;-68
2023/10/26 02:36:42;;;;;;;9.82;7.78;;;16.90;98.40;;;;;;5052274;28;20059;-67
2023/10/26 02:39:08;;;;;;;8.80;7.70;;;;;;;;;;5033502;28;20033;-67
2023/10/26 02:41:34;;;;;;;11.30;7.93;;;17.00;98.40;;;;;;5032367;28;20053;-70
2023/10/26 02:43:59;;;;;;;10.38;7.93;;;17.00;98.50;;;;;;5053453;28;20044;-67
2023/10/26 02:46:25;;;;;;;11.27;8.75;;;16.70;98.40;;;;;;5049036;28;20041;-70
2023/10/26 02:48:51;;;;;;;8.85;7.35;;;16.80;98.50;;;;;;5052018;28;20037;-70
2023/10/26 02:51:17;;;;;;;9.48;8.25;;;;;;;;;;5048145;28;20056;-67
2023/10/26 02:53:43;;;;;;;9.70;8.07;;;16.90;98.40;;;;;;5031801;28;20049;-68
2023/10/26 02:56:08;;;;;;;9.18;7.97;;;16.90;98.40;;;;;;5039081;28;20429;-67
2023/10/26 02:58:34;;;;;;;10.27;8.38;;;16.90;98.40;;;;;;5042329;28;20072;-67
2023/10/26 03:01:00;;;;;;;9.98;7.68;;;16.70;98.40;;;;;;5041851;28;20032;-67
2023/10/26 03:03:26;;;;;;;9.88;7.97;;;16.90;98.40;;;;;;5015449;28;20049;-67
2023/10/26 03:05:52;;;;;;;10.48;8.60;;;16.90;98.30;;;;;;5030764;28;20048;-67
2023/10/26 03:08:18;;;;;;;8.77;7.88;;;;;;;;;;5031612;28;20441;-67
2023/10/26 03:10:44;;;;;;;9.15;7.78;;;;;;;;;;5034126;28;20045;-68
2023/10/26 03:13:11;;;;;;;9.02;7.25;;;;;;;;;;5039178;28;20040;-67
2023/10/26 03:15:37;;;;;;;10.95;8.40;;;;;;;;;;5044557;28;20049;-67
2023/10/26 03:18:03;;;;;;;8.73;7.82;;;;;;;;;;5026473;28;20139;-67
2023/10/26 03:20:31;;;;;;;9.98;7.68;;;16.90;97.30;;;;;;5031827;28;20048;-67
2023/10/26 03:22:57;;;;;;;9.45;7.70;;;;;;;;;;5014370;28;20059;-67
2023/10/26 03:25:23;;;;;;;9.77;7.95;;;;;;;;;;5048634;28;20053;-67
2023/10/26 03:27:49;;;;;;;8.80;7.28;;;17.00;98.50;;;;;;5049707;28;20041;-67
2023/10/26 03:30:17;;;;;;;9.05;7.60;;;;;;;;;;5034939;28;20049;-69
2023/10/26 03:32:44;;;;;;;9.88;7.82;;;;;;;;;;5045226;28;20114;-67
2023/10/26 03:35:10;;;;;;;9.35;7.45;;;16.90;98.40;;;;;;5045338;28;20048;-67
2023/10/26 03:37:38;;;;;;;9.50;7.70;;;16.90;98.50;;;;;;5014507;28;20053;-67
2023/10/26 03:40:05;;;;;;;8.75;7.70;;;16.60;97.30;;;;;;5017973;28;20037;-67
2023/10/26 03:42:32;;;;;;;9.98;7.75;;;;;;;;;;5028619;28;20072;-68
2023/10/26 03:44:57;;;;;;;9.00;7.63;;;16.80;98.40;;;;;;5041546;28;20399;-74
2023/10/26 03:47:23;;;;;;;8.48;7.53;;;16.80;98.50;;;;;;5045761;28;20053;-67
2023/10/26 03:49:52;;;;;;;8.98;7.50;;;;;;;;;;5041842;28;20046;-67
2023/10/26 03:52:21;;;;;;;9.70;7.82;;;17.00;98.40;;;;;;5039753;28;20454;-67
2023/10/26 03:54:47;;;;;;;9.88;7.78;;;16.90;98.40;;;;;;5038493;28;20606;-67
2023/10/26 03:57:14;;;;;;;9.15;7.95;;;;;;;;;;5036170;28;20199;-67
2023/10/26 03:59:40;;;;;;;9.23;7.78;;;16.90;98.40;;;;;;5032108;28;20049;-67
2023/10/26 04:02:06;;;;;;;8.55;7.63;;;16.90;98.50;;;;;;5040410;28;20384;-68
2023/10/26 04:04:32;;;;;;;10.10;8.02;;;16.90;98.40;;;;;;5032365;28;20121;-67
2023/10/26 04:06:57;;;;;;;8.55;7.65;;;16.90;98.40;;;;;;5033240;28;20045;-74
2023/10/26 04:09:23;;;;;;;9.95;8.00;;;16.90;98.40;;;;;;5032626;28;20045;-68
2023/10/26 04:11:49;;;;;;;10.30;8.63;;;17.10;98.50;;;;;;5041502;28;20124;-74
2023/10/26 04:14:15;;;;;;;9.35;7.80;;;16.80;98.40;;;;;;5040943;28;20067;-69
2023/10/26 04:16:41;;;;;;;9.57;7.78;;;17.00;98.40;;;;;;5028510;28;20050;-68
2023/10/26 04:19:07;;;;;;;9.38;7.80;;;17.00;98.40;;;;;;5041531;28;20071;-67
2023/10/26 04:21:33;;;;;;;9.40;8.05;;;16.90;98.40;;;;;;5041570;28;20483;-68
2023/10/26 04:23:59;;;;;;;9.25;7.75;;;17.00;98.40;;;;;;5037488;28;20090;-67
2023/10/26 04:26:26;;;;;;;9.20;7.93;;;;;;;;;;5040611;28;20049;-67
2023/10/26 04:28:52;;;;;;;9.27;8.27;;;16.90;98.40;;;;;;5054118;28;20102;-69
2023/10/26 04:31:20;;;;;;;9.32;7.63;;;16.90;97.30;;;;;;5041412;28;20045;-67
2023/10/26 04:33:45;;;;;;;9.90;8.18;;;17.00;98.40;;;;;;5034761;28;20152;-68
2023/10/26 04:36:12;;;;;;;8.82;7.90;;;;;;;;;;5049070;28;20116;-70
2023/10/26 04:38:38;;;;;;;9.13;7.88;;;;;;;;;;5034858;28;20049;-67
2023/10/26 04:41:05;;;;;;;9.70;7.93;;;16.90;98.20;;;;;;5042641;28;20388;-67
2023/10/26 04:43:31;;;;;;;9.80;8.15;;;16.90;98.40;;;;;;5055798;28;20052;-68
2023/10/26 04:45:57;;;;;;;9.68;7.47;;;16.80;97.20;;;;;;5052936;28;20105;-66
2023/10/26 04:48:23;;;;;;;9.70;7.85;;;16.90;98.40;;;;;;5070468;28;20049;-67
2023/10/26 04:50:49;;;;;;;10.75;8.18;;;16.80;98.40;;;;;;5053735;28;20043;-67
2023/10/26 04:53:15;;;;;;;9.98;7.90;;;16.90;98.40;;;;;;5050337;28;20112;-67
2023/10/26 04:55:40;;;;;;;9.02;7.82;;;17.10;98.50;;;;;;5040431;28;20125;-67
2023/10/26 04:58:06;;;;;;;8.48;7.28;;;17.00;98.40;;;;;;5070577;28;20402;-67
2023/10/26 05:00:32;;;;;;;8.93;7.82;;;;;;;;;;5049849;28;20727;-68
2023/10/26 05:02:58;;;;;;;9.70;8.15;;;17.00;98.40;;;;;;5033072;28;20049;-67
2023/10/26 05:05:24;;;;;;;10.38;8.23;;;17.00;98.40;;;;;;5044795;28;20056;-71
2023/10/26 05:07:50;;;;;;;10.90;8.10;;;16.90;98.40;;;;;;5042483;28;20044;-68
2023/10/26 05:10:16;;;;;;;11.02;7.97;;;16.90;98.30;;;;;;5045890;28;20037;-68
2023/10/26 05:12:41;;;;;;;11.80;8.88;;;16.90;98.30;;;;;;5035161;28;20515;-71
2023/10/26 05:15:08;;;;;;;9.40;7.97;;;;;;;;;;5036461;28;20040;-70
2023/10/26 05:17:36;;;;;;;10.15;8.65;;;;;;;;;;5025711;28;20061;-71
2023/10/26 05:20:03;;;;;;;9.88;8.13;;;;;;;;;;5036535;28;20045;-68
2023/10/26 05:22:29;;;;;;;8.90;7.90;;;;;;;;;;5044633;28;20054;-67
2023/10/26 05:24:55;;;;;;;8.90;7.90;;;17.00;98.30;;;;;;5043356;28;20049;-67
2023/10/26 05:27:20;;;;;;;11.18;8.25;;;16.80;98.30;;;;;;5038118;28;20487;-67
2023/10/26 05:29:46;;;;;;;9.23;7.85;;;16.90;98.30;;;;;;5049798;28;20044;-67
2023/10/26 05:32:12;;;;;;;9.57;8.30;;;17.00;98.20;;;;;;5037007;28;20079;-67
2023/10/26 05:34:38;;;;;;;10.73;8.30;;;16.90;98.20;;;;;;5057370;28;20037;-67
2023/10/26 05:37:04;;;;;;;9.90;8.40;;;;;;;;;;5044500;28;20060;-67
2023/10/26 05:39:32;;;;;;;9.93;8.43;;;16.90;97.10;;;;;;5041150;28;20046;-68
2023/10/26 05:41:58;;;;;;;11.00;9.20;;;;;;;;;;5037710;28;20041;-67
2023/10/26 05:44:25;;;;;;;10.02;8.57;;;;;;;;;;5050674;28;20132;-67
2023/10/26 05:46:51;;;;;;;11.45;9.10;;;16.90;98.20;;;;;;5042898;28;20410;-67
2023/10/26 05:49:16;;;;;;;9.90;8.50;;;16.90;98.20;;;;;;5027022;28;20045;-67
2023/10/26 05:51:42;;;;;;;10.63;8.38;;;16.90;98.10;;;;;;5044413;28;20075;-70
2023/10/26 05:54:08;;;;;;;10.63;8.95;;;;;;;;;;5035584;28;20037;-66
2023/10/26 05:56:34;;;;;;;10.43;8.25;;;17.00;98.10;;;;;;5041755;28;20068;-66
2023/10/26 05:59:00;;;;;;;10.43;8.98;;;;;;;;;;5043764;28;20049;-69
2023/10/26 06:01:26;;;;;;;11.02;8.65;;;16.90;98.00;;;;;;5039407;28;20046;-66
2023/10/26 06:03:52;;;;;;;13.40;9.48;;;17.10;98.10;;;;;;5039841;28;20059;-66
2023/10/26 06:06:18;;;;;;;9.88;8.68;;;;;;;;;;5044479;28;20045;-65
2023/10/26 06:08:44;;;;;;;9.93;8.45;;;17.10;98.10;;;;;;5045795;28;20045;-66
2023/10/26 06:11:10;;;;;;;10.45;8.32;;;17.00;98.00;;;;;;5038807;28;20049;-66
2023/10/26 06:13:36;;;;;;;10.30;8.35;;;;;;;;;;5050830;28;20079;-68
2023/10/26 06:16:02;;;;;;;10.73;8.88;;;16.90;97.90;;;;;;5047752;28;20056;-65
2023/10/26 06:18:28;;;;;;;11.50;9.15;;;;;;;;;;5047511;28;20041;-66
2023/10/26 06:20:58;;;;;;;9.98;8.48;;;17.10;98.00;;;;;;5049507;28;20044;-66
2023/10/26 06:23:24;;;;;;;9.57;8.25;;;17.10;98.00;;;;;;5024336;28;20049;-65
2023/10/26 06:25:50;;;;;;;10.38;8.35;;;17.00;97.80;;;;;;5041705;28;20516;-65
2023/10/26 06:28:17;;;;;;;10.48;8.25;;;;;;;;;;5031060;28;20044;-65
2023/10/26 06:30:43;;;;;;;11.52;8.77;;;17.10;97.50;;;;;;5049214;28;20497;-66
2023/10/26 06:33:12;;;;;;;10.05;8.60;;;17.10;97.80;;;;;;5034588;28;20616;-65
2023/10/26 06:35:38;;;;;;;11.43;8.68;;;17.10;97.90;;;;;;5045802;28;20037;-67
2023/10/26 06:38:04;;;;;;;10.20;8.48;;;17.00;97.40;;;;;;5047482;28;20051;-67
2023/10/26 06:40:30;;;;;;;11.30;8.50;;;16.90;97.70;;;;;;5049351;28;20052;-72
2023/10/26 06:42:56;;;;;;;10.20;8.93;;;17.10;97.80;;;;;;5048004;28;20068;-65
2023/10/26 06:45:22;;;;;;;12.63;9.80;;;;;;;;;;5049858;28;20052;-65
2023/10/26 06:47:48;;;;;;;11.93;9.10;;;17.10;97.70;;;;;;5011407;28;20183;-65
2023/10/26 06:50:13;;;;;;;11.00;9.77;;;17.00;97.70;;;;;;5030349;28;20124;-66
2023/10/26 06:52:39;;;;;;;11.90;9.13;;;17.10;97.70;;;;;;5047667;28;20483;-66
2023/10/26 06:55:06;;;;;;;13.15;10.88;;;17.10;97.70;;;;;;5049396;28;20056;-69
2023/10/26 06:57:35;;;;;;;12.73;11.15;;;17.00;97.70;;;;;;5043106;28;20055;-70
2023/10/26 07:00:01;;;;;;;14.40;11.23;;;17.10;97.70;;;;;;5049511;28;20037;-67
2023/10/26 07:02:27;;;;;;;13.75;12.32;;;17.00;97.50;;;;;;5043612;28;20062;-65
2023/10/26 07:04:53;;;;;;;12.95;11.55;;;;;;;;;;5049765;28;20045;-67
2023/10/26 07:07:19;;;;;;;12.85;11.45;;;16.90;96.50;;;;;;5047504;28;20053;-65
2023/10/26 07:09:45;;;;;;;11.88;10.20;;;16.90;97.50;;;;;;5045868;28;20053;-65
2023/10/26 07:12:11;;;;;;;12.80;10.75;;;17.00;97.40;;;;;;5040277;28;20059;-65
2023/10/26 07:14:37;;;;;;;12.18;10.65;;;17.10;97.50;;;;;;5048075;28;20049;-65
2023/10/26 07:17:03;;;;;;;14.40;11.23;;;17.10;97.50;;;;;;5044877;28;20040;-65
2023/10/26 07:19:28;;;;;;;12.65;10.30;;;17.10;97.20;;;;;;5046967;28;20902;-66
2023/10/26 07:21:55;;;;;;;12.38;11.05;;;;;;;;;;5043630;28;20067;-68
2023/10/26 07:24:20;;;;;;;11.93;10.45;;;17.00;97.60;;;;;;5047807;28;20064;-71
2023/10/26 07:26:49;;;;;;;13.23;11.15;;;16.90;96.30;;;;;;5044258;28;20049;-69
2023/10/26 07:29:15;;;;;;;13.02;10.68;;;17.20;97.40;;;;;;5038645;28;20041;-71
2023/10/26 07:31:41;;;;;;;12.20;10.77;;;17.20;96.60;;;;;;5040272;28;20154;-71
2023/10/26 07:34:07;;;;;;;13.45;10.57;;;17.20;97.40;;;;;;5043785;28;20125;-69
2023/10/26 07:36:32;;;;;;;14.10;11.02;;;17.20;97.40;;;;;;5025015;28;20053;-66
2023/10/26 07:39:01;;;;;;;12.50;11.00;;;17.10;97.30;;;;;;5058409;28;20084;-68
2023/10/26 07:41:27;;;;;;;14.57;11.85;;;17.10;97.20;;;;;;5039468;28;20044;-71
2023/10/26 07:43:53;;;;;;;13.48;11.25;;;;;;;;;;5051923;28;20049;-67
2023/10/26 07:46:20;;;;;;;14.25;10.82;;;;;;;;;;5053526;28;20053;-67
2023/10/26 07:48:46;;;;;;;13.32;11.75;;;17.30;97.30;;;;;;5034905;28;20444;-77
2023/10/26 07:51:11;;;;;;;13.60;11.73;;;17.30;97.30;;;;;;5048265;28;20132;-72
2023/10/26 07:53:38;;;;;;;12.98;10.88;;;;;;;;;;5053473;28;20051;-67
2023/10/26 07:56:04;;;;;;;15.35;12.20;;;;;;;;;;5050402;28;20186;-67
2023/10/26 07:58:30;;;;;;;13.85;11.15;;;;;;;;;;5030841;28;20547;-66
2023/10/26 08:00:56;;;;;;;14.65;11.70;;;17.20;97.20;;;;;;5049133;28;20132;-69
2023/10/26 08:03:27;;;;;;;13.90;10.90;;;17.30;97.20;;;;;;5050368;28;20123;-70
2023/10/26 08:05:57;;;;;;;13.82;11.45;;;17.10;95.40;;;;;;5047321;28;20043;-72
2023/10/26 08:08:23;;;;;;;13.90;12.10;;;17.20;97.10;;;;;;5048803;28;20119;-67
2023/10/26 08:10:49;;;;;;;13.80;11.65;;;17.20;97.10;;;;;;5043243;28;20136;-69
2023/10/26 08:13:15;;;;;;;13.73;12.10;;;17.10;96.40;;;;;;5037931;28;20038;-66
2023/10/26 08:15:44;;;;;;;14.68;12.45;;;17.20;96.80;;;;;;5057818;28;20053;-68
2023/10/26 08:18:12;;;;;;;14.45;12.02;;;17.30;97.00;;;;;;5063276;28;20436;-68
2023/10/26 08:20:38;;;;;;;14.95;13.05;;;17.20;96.90;;;;;;5047585;28;20040;-66
2023/10/26 08:23:04;;;;;;;16.65;12.88;;;17.20;96.90;;;;;;5049398;28;20064;-68
2023/10/26 08:25:34;;;;;;;16.13;13.65;;;17.10;96.80;;;;;;5045175;28;20040;-67
2023/10/26 08:27:59;;;;;;;15.48;12.57;;;17.30;96.90;;;;;;5040036;28;20056;-67
2023/10/26 08:30:25;;;;;;;15.48;13.88;;;17.00;96.80;;;;;;5044312;28;20040;-67
2023/10/26 08:32:54;;;;;;;17.55;13.80;;;;;;;;;;5046653;28;20472;-68
2023/10/26 08:35:20;;;;;;;15.90;14.20;;;17.00;96.80;;;;;;5028922;28;20391;-73
2023/10/26 08:37:46;;;;;;;16.55;13.90;;;;;;;;;;5049867;28;20037;-68
2023/10/26 08:40:12;;;;;;;16.75;13.70;;;;;;;;;;5048803;28;20091;-68
2023/10/26 08:42:39;;;;;;;17.02;14.00;;;17.10;96.80;;;;;;5044530;28;20060;-74
2023/10/26 08:45:09;;;;;;;18.15;14.45;;;17.20;96.80;;;;;;5025691;28;20057;-68
2023/10/26 08:47:35;;;;;;;18.83;16.10;;;;;;;;;;5013987;28;20053;-75
2023/10/26 08:50:01;;;;;;;16.90;15.05;;;;;;;;;;5025224;28;20368;-71
2023/10/26 08:52:27;;;;;;;15.57;13.70;;;;;;;;;;5042834;28;20430;-66
2023/10/26 08:54:53;;;;;;;19.35;15.15;;;16.90;96.50;;;;;;5045056;28;20463;-66
2023/10/26 08:57:22;;;;;;;16.98;14.80;;;17.00;95.30;;;;;;5020008;28;20041;-73
2023/10/26 08:59:48;;;;;;;18.27;16.30;;;;;;;;;;5002563;28;20133;-66
2023/10/26 09:02:15;;;;;;;17.45;15.50;;;;;;;;;;5043342;28;20383;-66
2023/10/26 09:05:00;;;;;;;17.65;15.50;;;17.00;96.60;;;;;;5041152;28;20034;-65
2023/10/26 09:07:26;;;;;;;20.85;15.82;;;17.10;96.60;;;;;;5057206;28;20049;-65
2023/10/26 09:09:52;;;;;;;22.40;16.20;;;16.80;96.00;;;;;;5027777;28;20052;-68
2023/10/26 09:12:19;;;;;;;23.95;16.17;;;;;;;;;;4995288;28;20080;-68
2023/10/26 09:15:01;;;;;;;31.25;17.60;;;16.80;95.60;;;;;;5059140;28;20050;-69
2023/10/26 09:17:28;;;;;;;32.92;16.55;;;17.10;96.60;;;;;;5005497;28;20040;-68
2023/10/26 09:19:54;;;;;;;27.02;15.32;;;;;;;;;;5027131;28;20399;-67
2023/10/26 09:22:37;;;;;;;26.33;16.67;;;17.10;95.60;;;;;;5041108;28;20148;-66
2023/10/26 09:25:10;;;;;;;40.97;17.75;;;17.30;94.70;;;;;;5056713;28;20057;-66
2023/10/26 09:27:36;;;;;;;34.50;15.70;;;;;;;;;;5020385;28;20492;-67
2023/10/26 09:30:03;;;;;;;44.58;17.00;;;17.10;96.50;;;;;;5046447;28;20529;-66
2023/10/26 09:32:32;;;;;;;51.55;17.48;;;16.90;94.70;;;;;;5046792;28;20111;-68
2023/10/26 09:34:59;;;;;;;39.55;18.15;;;17.10;96.50;;;;;;5044060;28;20069;-71
2023/10/26 09:37:24;;;;;;;40.63;19.30;;;17.30;96.20;;;;;;5047902;28;20424;-77
2023/10/26 09:39:50;;;;;;;35.63;20.45;;;17.20;95.60;;;;;;5051773;28;20049;-64
2023/10/26 09:42:16;;;;;;;46.97;23.33;;;17.10;96.10;;;;;;5026090;28;20037;-65
2023/10/26 09:44:42;;;;;;;37.63;20.88;;;;;;;;;;5022959;28;20053;-68
2023/10/26 09:47:08;;;;;;;42.97;22.10;;;;;;;;;;5045178;28;20048;-65
2023/10/26 09:49:35;;;;;;;34.40;21.67;;;;;;;;;;5047706;28;20135;-67
2023/10/26 09:52:01;;;;;;;39.83;22.08;;;;;;;;;;5040482;28;20041;-68
2023/10/26 09:54:28;;;;;;;31.33;21.38;;;17.10;95.00;;;;;;5047921;28;20676;-67
2023/10/26 09:57:15;;;;;;;32.70;20.77;;;17.10;94.30;;;;;;5034242;28;20494;-66
2023/10/26 09:59:41;;;;;;;30.50;20.40;;;17.10;96.10;;;;;;5044043;28;20503;-65
2023/10/26 10:02:17;;;;;;;35.42;20.10;;;17.10;94.30;;;;;;5036230;28;20040;-65
2023/10/26 10:04:43;;;;;;;31.70;20.33;;;;;;;;;;5016283;28;20049;-65
2023/10/26 10:07:09;;;;;;;33.33;20.33;;;;;;;;;;5053035;28;20044;-65
2023/10/26 10:10:07;;;;;;;36.25;20.15;;;16.90;96.00;;;;;;5047040;28;20052;-64
2023/10/26 10:12:34;;;;;;;28.00;18.95;;;17.00;96.10;;;;;;5063981;28;20127;-65
2023/10/26 10:15:03;;;;;;;24.92;19.02;;;16.80;96.10;;;;;;5068626;28;20049;-65
2023/10/26 10:18:04;;;;;;;29.67;19.30;;;17.00;96.10;;;;;;5036782;28;20187;-68
2023/10/26 10:20:37;;;;;;;32.67;18.83;;;16.90;96.20;;;;;;5023326;28;20052;-66
2023/10/26 10:23:03;;;;;;;;;;;16.80;95.30;;;;;;5050310;28;20096;-65
2023/10/26 10:25:50;;;;;;;26.52;17.98;;;16.80;96.20;;;;;;5034017;28;20422;-66
2023/10/26 10:28:17;;;;;;;24.27;16.95;;;16.80;96.20;;;;;;5034104;28;20049;-66
2023/10/26 10:30:55;;;;;;;27.30;18.25;;;17.00;94.60;;;;;;5029680;28;20136;-66
2023/10/26 10:33:22;;;;;;;23.40;17.95;;;16.80;96.20;;;;;;5048023;28;20379;-65
2023/10/26 10:36:01;;;;;;;21.33;17.33;;;16.90;96.10;;;;;;5043017;28;22202;-77
2023/10/26 10:38:27;;;;;;;23.25;18.13;;;17.10;96.20;;;;;;5040365;28;20103;-64
2023/10/26 10:40:58;;;;;;;20.48;16.83;;;16.90;96.20;;;;;;5049810;28;20445;-65
2023/10/26 10:43:30;;;;;;;23.48;18.42;;;16.80;94.50;;;;;;5033336;28;20099;-67
2023/10/26 10:45:56;;;;;;;24.70;16.93;;;17.10;96.20;;;;;;5033185;28;20044;-67
2023/10/26 10:48:22;;;;;;;21.60;16.35;;;;;;;;;;5031879;28;20091;-65
2023/10/26 10:50:50;;;;;;;22.17;17.17;;;17.10;95.20;;;;;;5011793;28;20060;-65
2023/10/26 10:53:17;;;;;;;23.58;17.10;;;;;;;;;;5030392;28;20483;-65
2023/10/26 10:55:43;;;;;;;21.33;16.65;;;;;;;;;;5017553;28;20054;-66
2023/10/26 10:58:09;;;;;;;21.63;15.90;;;;;;;;;;5044443;28;20049;-65
2023/10/26 11:00:45;;;;;;;19.63;16.15;;;17.10;96.10;;;;;;5034295;28;20045;-65
2023/10/26 11:03:21;;;;;;;21.55;16.38;;;17.10;95.90;;;;;;5033574;28;20051;-65
2023/10/26 11:05:47;;;;;;;19.48;15.77;;;16.90;96.10;;;;;;5051215;28;20060;-64
2023/10/26 11:08:13;;;;;;;21.75;16.00;;;;;;;;;;5053550;28;20068;-73
2023/10/26 11:10:39;;;;;;;19.35;16.30;;;;;;;;;;5030363;28;20042;-74
2023/10/26 11:13:05;;;;;;;18.42;16.08;;;;;;;;;;5035619;28;20190;-65
2023/10/26 11:15:33;;;;;;;19.45;16.13;;;17.00;96.10;;;;;;5050785;28;20094;-65
2023/10/26 11:17:59;;;;;;;17.58;15.50;;;17.30;95.10;;;;;;5016408;28;20055;-66
2023/10/26 11:20:41;;;;;;;18.58;15.70;;;17.10;95.60;;;;;;5049840;28;20052;-65
2023/10/26 11:23:09;;;;;;;17.45;15.23;;;17.20;96.10;;;;;;5032917;28;20503;-73
2023/10/26 11:25:35;;;;;;;18.00;15.43;;;17.10;96.10;;;;;;5050161;28;20049;-66
2023/10/26 11:28:01;;;;;;;17.67;15.15;;;17.20;96.10;;;;;;5033172;28;20046;-66
2023/10/26 11:30:27;;;;;;;17.60;14.75;;;17.20;95.30;;;;;;5043273;28;20128;-66
2023/10/26 11:32:53;;;;;;;17.40;14.77;;;17.00;96.10;;;;;;5051936;28;20052;-65
2023/10/26 11:35:19;;;;;;;18.23;14.80;;;;;;;;;;5047230;28;20486;-65
2023/10/26 11:37:46;;;;;;;19.00;15.50;;;17.00;95.00;;;;;;5048344;28;20525;-66
2023/10/26 11:40:13;;;;;;;17.08;14.30;;;;;;;;;;5036008;28;20136;-64
2023/10/26 11:42:46;;;;;;;19.30;15.35;;;17.10;96.10;;;;;;5062314;28;20090;-66
2023/10/26 11:45:15;;;;;;;19.83;15.10;;;17.00;95.00;;;;;;5034040;28;20046;-67
2023/10/26 11:47:52;;;;;;;18.92;13.63;;;17.00;96.00;;;;;;5032473;28;20056;-69
2023/10/26 11:50:35;;;;;;;18.98;15.13;;;17.10;94.80;;;;;;5038822;28;20119;-71
2023/10/26 11:53:02;;;;;;;19.45;14.48;;;17.30;95.30;;;;;;5030465;28;20120;-71
2023/10/26 11:55:29;;;;;;;20.08;14.55;;;17.20;96.10;;;;;;5030791;28;20158;-69
2023/10/26 11:57:56;;;;;;;18.63;13.70;;;;;;;;;;5016072;28;20057;-73
2023/10/26 12:00:22;;;;;;;19.42;13.65;;;17.20;96.00;;;;;;5050068;28;20060;-68
2023/10/26 12:02:48;;;;;;;19.67;13.50;;;17.40;96.10;;;;;;5036021;28;20045;-65
2023/10/26 12:05:18;;;;;;;17.33;13.40;;;17.20;96.00;;;;;;5050343;28;20037;-65
2023/10/26 12:07:48;;;;;;;19.05;14.10;;;;;;;;;;5032777;28;20049;-66
2023/10/26 12:10:15;;;;;;;18.98;13.90;;;17.30;96.00;;;;;;5048565;28;20096;-66
2023/10/26 12:12:41;;;;;;;18.00;13.82;;;;;;;;;;5049488;28;20089;-65
2023/10/26 12:15:08;;;;;;;16.70;12.45;;;17.30;96.00;;;;;;5032529;28;20439;-65
2023/10/26 12:17:33;;;;;;;18.48;12.60;;;17.70;96.10;;;;;;5044768;28;20053;-66
2023/10/26 12:19:59;;;;;;;15.82;12.10;;;18.20;95.90;;;;;;5050625;28;20037;-67
2023/10/26 12:22:25;;;;;;;18.05;11.85;;;18.70;95.50;;;;;;5047778;28;20076;-65
2023/10/26 12:24:51;;;;;;;15.95;12.40;;;;;;;;;;5050553;28;20045;-65
2023/10/26 12:27:18;;;;;;;15.75;12.00;;;;;;;;;;5049886;28;20048;-66
2023/10/26 12:29:44;;;;;;;15.88;11.98;;;;;;;;;;5038934;28;20049;-66
2023/10/26 12:32:10;;;;;;;13.82;11.25;;;20.40;92.30;;;;;;5046004;28;20049;-68
2023/10/26 12:34:37;;;;;;;15.40;12.00;;;;;;;;;;5036309;28;20120;-65
2023/10/26 12:37:03;;;;;;;13.95;11.27;;;21.50;91.40;;;;;;5037218;28;20053;-66
2023/10/26 12:39:29;;;;;;;11.82;10.55;;;21.50;91.50;;;;;;5036850;28;20554;-65
2023/10/26 12:41:55;;;;;;;14.23;10.98;;;;;;;;;;5040734;28;20132;-66
2023/10/26 12:44:21;;;;;;;15.10;11.82;;;20.60;91.50;;;;;;5033821;28;20458;-66
2023/10/26 12:46:53;;;;;;;13.90;11.75;;;20.40;91.80;;;;;;5035278;28;20121;-65
2023/10/26 12:49:21;;;;;;;15.77;11.60;;;20.00;91.60;;;;;;5034135;28;20065;-66
2023/10/26 12:51:47;;;;;;;13.60;12.02;;;19.60;92.20;;;;;;5034848;28;20398;-65
2023/10/26 12:54:13;;;;;;;13.23;10.90;;;;;;;;;;5043772;28;20448;-66
2023/10/26 12:56:39;;;;;;;13.85;11.52;;;19.10;92.70;;;;;;5033614;28;20045;-65
2023/10/26 12:59:05;;;;;;;13.18;11.20;;;18.90;92.90;;;;;;5034821;28;20103;-65
2023/10/26 13:01:31;;;;;;;12.60;10.57;;;18.80;93.10;;;;;;5043322;28;20037;-66
2023/10/26 13:03:56;;;;;;;15.93;11.45;;;18.70;93.30;;;;;;5034904;28;20142;-65